createdAt,value
2023-05-05T00:00:57.703Z,97348.63
2023-05-05T00:03:24.366Z,97340.47
2023-05-05T00:05:50.968Z,97337.19
2023-05-05T00:08:17.466Z,97337.13
2023-05-05T00:10:43.947Z,97343.31
2023-05-05T00:13:10.630Z,97339.44
2023-05-05T00:15:37.287Z,97343.13
2023-05-05T00:18:03.767Z,97349.72
2023-05-05T00:20:30.447Z,97343.91
2023-05-05T00:22:56.976Z,97347.22
2023-05-05T00:25:23.567Z,97348.50
2023-05-05T00:27:50.056Z,97351.94
2023-05-05T00:30:16.592Z,97338.81
2023-05-05T00:32:43.149Z,97339.94
2023-05-05T00:35:09.667Z,97333.22
2023-05-05T00:37:39.037Z,97340.41
2023-05-05T00:40:05.612Z,97341.09
2023-05-05T00:42:32.291Z,97329.41
2023-05-05T00:44:58.798Z,97327.78
2023-05-05T00:47:25.339Z,97326.19
2023-05-05T00:49:51.932Z,97328.41
2023-05-05T00:52:18.450Z,97328.72
2023-05-05T00:54:44.973Z,97324.00
2023-05-05T00:57:11.443Z,97325.63
2023-05-05T00:59:38.010Z,97327.09
2023-05-05T01:02:04.525Z,97325.06
2023-05-05T01:04:31.050Z,97319.09
2023-05-05T01:06:57.547Z,97319.59
2023-05-05T01:09:24.013Z,97321.66
2023-05-05T01:11:50.525Z,97319.28
2023-05-05T01:14:17.037Z,97315.53
2023-05-05T01:16:43.576Z,97316.22
2023-05-05T01:19:10.108Z,97310.91
2023-05-05T01:21:36.560Z,97317.56
2023-05-05T01:24:03.081Z,97322.41
2023-05-05T01:26:29.641Z,97322.00
2023-05-05T01:28:56.185Z,97317.38
2023-05-05T01:31:22.761Z,97323.88
2023-05-05T01:33:49.343Z,97320.13
2023-05-05T01:36:17.336Z,97318.25
2023-05-05T01:38:43.763Z,97318.56
2023-05-05T01:41:10.274Z,97314.16
2023-05-05T01:43:39.755Z,97318.66
2023-05-05T01:46:06.258Z,97320.78
2023-05-05T01:48:32.779Z,97311.44
2023-05-05T01:50:59.267Z,97319.28
2023-05-05T01:53:25.791Z,97312.31
2023-05-05T01:55:52.212Z,97326.91
2023-05-05T01:58:18.678Z,97319.44
2023-05-05T02:00:45.086Z,97319.59
2023-05-05T02:03:11.642Z,97320.88
2023-05-05T02:05:38.214Z,97319.50
2023-05-05T02:08:04.679Z,97322.22
2023-05-05T02:10:31.161Z,97310.91
2023-05-05T02:12:57.734Z,97312.53
2023-05-05T02:15:24.295Z,97317.69
2023-05-05T02:17:50.897Z,97311.78
2023-05-05T02:20:17.437Z,97306.50
2023-05-05T02:22:43.946Z,97312.81
2023-05-05T02:25:10.496Z,97315.63
2023-05-05T02:27:36.967Z,97313.41
2023-05-05T02:30:03.551Z,97315.16
2023-05-05T02:32:30.147Z,97313.00
2023-05-05T02:34:56.747Z,97310.91
2023-05-05T02:37:23.326Z,97314.16
2023-05-05T02:39:49.890Z,97311.69
2023-05-05T02:42:16.434Z,97307.00
2023-05-05T02:44:42.977Z,97317.13
2023-05-05T02:47:09.510Z,97310.84
2023-05-05T02:49:36.044Z,97316.44
2023-05-05T02:52:02.516Z,97309.19
2023-05-05T02:54:29.053Z,97312.63
2023-05-05T02:56:55.592Z,97310.38
2023-05-05T02:59:22.131Z,97307.97
2023-05-05T03:01:48.668Z,97317.88
2023-05-05T03:04:15.184Z,97307.38
2023-05-05T03:06:41.638Z,97310.22
2023-05-05T03:09:08.156Z,97306.41
2023-05-05T03:11:34.690Z,97300.88
2023-05-05T03:14:01.319Z,97300.56
2023-05-05T03:16:27.835Z,97292.41
2023-05-05T03:18:54.352Z,97296.00
2023-05-05T03:21:20.833Z,97294.72
2023-05-05T03:23:47.306Z,97294.72
2023-05-05T03:26:13.767Z,97299.28
2023-05-05T03:28:40.239Z,97299.41
2023-05-05T03:31:06.711Z,97297.59
2023-05-05T03:33:33.378Z,97298.72
2023-05-05T03:35:59.890Z,97301.75
2023-05-05T03:38:26.416Z,97301.25
2023-05-05T03:40:52.840Z,97304.66
2023-05-05T03:43:19.254Z,97297.69
2023-05-05T03:45:45.679Z,97304.78
2023-05-05T03:48:12.201Z,97309.41
2023-05-05T03:50:38.686Z,97306.41
2023-05-05T03:53:05.217Z,97298.25
2023-05-05T03:55:31.656Z,97296.69
2023-05-05T03:57:58.049Z,97296.97
2023-05-05T04:00:24.520Z,97302.22
2023-05-05T04:02:51.088Z,97299.03
2023-05-05T04:05:17.554Z,97307.94
2023-05-05T04:07:43.951Z,97300.25
2023-05-05T04:10:10.544Z,97306.69
2023-05-05T04:12:37.145Z,97297.41
2023-05-05T04:17:29.798Z,97293.59
2023-05-05T04:19:56.291Z,97294.53
2023-05-05T04:22:22.764Z,97300.88
2023-05-05T04:24:49.226Z,97298.94
2023-05-05T04:27:15.693Z,97300.31
2023-05-05T04:29:42.204Z,97293.91
2023-05-05T04:32:08.686Z,97305.75
2023-05-05T04:34:35.132Z,97305.63
2023-05-05T04:37:01.673Z,97305.34
2023-05-05T04:39:28.095Z,97300.41
2023-05-05T04:41:54.655Z,97301.53
2023-05-05T04:44:21.192Z,97291.75
2023-05-05T04:46:47.859Z,97293.09
2023-05-05T04:49:14.440Z,97289.75
2023-05-05T04:51:40.962Z,97299.13
2023-05-05T04:54:07.449Z,97297.50
2023-05-05T04:56:33.910Z,97289.13
2023-05-05T04:59:00.499Z,97287.69
2023-05-05T05:01:27.123Z,97294.84
2023-05-05T05:03:53.788Z,97287.53
2023-05-05T05:06:20.310Z,97294.41
2023-05-05T05:08:46.839Z,97294.06
2023-05-05T05:11:13.322Z,97289.53
2023-05-05T05:13:39.921Z,97292.47
2023-05-05T05:16:06.485Z,97291.97
2023-05-05T05:18:33.009Z,97298.94
2023-05-05T05:20:59.518Z,97300.06
2023-05-05T05:23:26.054Z,97304.16
2023-05-05T05:25:52.626Z,97307.97
2023-05-05T05:28:19.186Z,97311.69
2023-05-05T05:30:45.713Z,97313.78
2023-05-05T05:33:12.338Z,97310.16
2023-05-05T05:35:38.881Z,97305.81
2023-05-05T05:38:05.346Z,97309.22
2023-05-05T05:40:31.961Z,97312.38
2023-05-05T05:42:58.500Z,97317.06
2023-05-05T05:45:24.982Z,97316.78
2023-05-05T05:47:51.514Z,97315.13
2023-05-05T05:50:17.984Z,97323.41
2023-05-05T05:52:44.553Z,97328.44
2023-05-05T05:55:11.134Z,97328.44
2023-05-05T07:25:51.204Z,97298.97
2023-05-05T07:28:17.694Z,97303.69
2023-05-05T07:30:44.293Z,97306.19
2023-05-05T07:33:10.890Z,97306.19
2023-05-05T07:35:37.443Z,97298.34
2023-05-05T07:38:03.916Z,97297.53
2023-05-05T07:40:30.452Z,97302.78
2023-05-05T07:42:56.962Z,97296.84
2023-05-05T07:45:23.507Z,97296.94
2023-05-05T07:47:50.083Z,97298.38
2023-05-05T07:50:16.544Z,97296.25
2023-05-05T07:52:48.373Z,97296.91
2023-05-05T07:55:20.317Z,97296.47
2023-05-05T07:57:46.860Z,97297.75
2023-05-05T08:00:13.411Z,97294.63
2023-05-05T08:02:40.105Z,97292.66
2023-05-05T08:05:07.019Z,97285.53
2023-05-05T08:07:33.656Z,97285.44
2023-05-05T08:10:00.225Z,97283.75
2023-05-05T08:12:26.716Z,97277.03
2023-05-05T08:14:53.234Z,97278.47
2023-05-05T08:17:19.768Z,97278.03
2023-05-05T08:19:46.278Z,97275.16
2023-05-05T08:22:12.733Z,97271.41
2023-05-05T08:24:39.192Z,97270.81
2023-05-05T08:27:05.774Z,97279.91
2023-05-05T08:29:32.222Z,97277.03
2023-05-05T08:31:59.000Z,97277.78
2023-05-05T08:34:25.520Z,97281.09
2023-05-05T08:36:52.032Z,97278.81
2023-05-05T08:39:18.502Z,97281.88
2023-05-05T08:41:45.010Z,97272.34
2023-05-05T08:44:11.520Z,97273.13
2023-05-05T08:46:38.039Z,97275.31
2023-05-05T08:49:04.609Z,97273.63
2023-05-05T08:51:31.117Z,97266.50
2023-05-05T08:53:57.581Z,97262.38
2023-05-05T08:56:24.122Z,97270.53
2023-05-05T08:58:50.593Z,97257.66
2023-05-05T09:01:17.184Z,97249.56
2023-05-05T09:03:44.165Z,97251.25
2023-05-05T09:06:10.670Z,97251.59
2023-05-05T09:08:37.093Z,97255.88
2023-05-05T09:11:03.567Z,97253.47
2023-05-05T09:13:30.055Z,97247.94
2023-05-05T09:15:56.561Z,97249.56
2023-05-05T09:18:23.008Z,97240.88
2023-05-05T09:20:49.473Z,97243.75
2023-05-05T09:23:15.930Z,97258.56
2023-05-05T09:25:42.414Z,97257.72
2023-05-05T09:28:08.889Z,97250.31
2023-05-05T09:30:35.450Z,97249.13
2023-05-05T09:33:01.943Z,97252.19
2023-05-05T09:35:28.416Z,97247.88
2023-05-05T09:37:54.916Z,97241.75
2023-05-05T09:40:21.576Z,97243.34
2023-05-05T09:42:48.210Z,97240.63
2023-05-05T09:45:14.684Z,97241.38
2023-05-05T09:47:41.238Z,97233.13
2023-05-05T09:50:08.106Z,97221.88
2023-05-05T09:52:34.788Z,97226.56
2023-05-05T09:55:01.255Z,97216.44
2023-05-05T09:57:27.776Z,97217.97
2023-05-05T09:59:54.350Z,97216.88
2023-05-05T10:02:20.817Z,97218.16
2023-05-05T10:04:47.947Z,97207.69
2023-05-05T10:07:14.521Z,97212.72
2023-05-05T10:09:41.101Z,97202.56
2023-05-05T10:12:07.669Z,97214.69
2023-05-05T10:14:34.168Z,97210.53
2023-05-05T10:17:00.607Z,97216.72
2023-05-05T10:19:27.096Z,97204.31
2023-05-05T10:21:53.624Z,97206.00
2023-05-05T10:24:20.106Z,97219.09
2023-05-05T10:26:46.521Z,97210.53
2023-05-05T10:29:12.958Z,97209.75
2023-05-05T10:31:39.529Z,97207.34
2023-05-05T10:34:06.070Z,97205.84
2023-05-05T10:36:32.693Z,97206.16
2023-05-05T10:38:59.140Z,97210.44
2023-05-05T10:41:25.625Z,97198.78
2023-05-05T10:43:52.222Z,97203.78
2023-05-05T10:46:18.815Z,97195.28
2023-05-05T10:48:45.299Z,97197.34
2023-05-05T10:51:11.870Z,97200.41
2023-05-05T10:53:38.390Z,97190.59
2023-05-05T10:56:04.957Z,97196.81
2023-05-05T10:58:31.470Z,97190.19
2023-05-05T11:00:58.040Z,97186.19
2023-05-05T11:03:24.656Z,97185.56
2023-05-05T11:05:51.166Z,97177.75
2023-05-05T11:08:17.612Z,97173.84
2023-05-05T11:10:44.242Z,97169.19
2023-05-05T11:13:10.822Z,97169.91
2023-05-05T14:11:41.562Z,97019.13
2023-05-05T14:14:08.126Z,97016.94
2023-05-05T14:16:34.765Z,97017.38
2023-05-05T14:19:01.292Z,97015.28
2023-05-05T14:21:27.838Z,97015.94
2023-05-05T14:23:54.401Z,97012.25
2023-05-05T14:26:20.970Z,97009.94
2023-05-05T14:28:49.755Z,97010.81
2023-05-05T14:31:16.657Z,97003.53
2023-05-05T14:33:43.099Z,97001.66
2023-05-05T14:36:09.720Z,97002.38
2023-05-05T14:38:36.316Z,96996.94
2023-05-05T14:41:02.886Z,96999.66
2023-05-05T14:43:29.367Z,97003.69
2023-05-05T14:45:55.899Z,97013.84
2023-05-05T14:48:22.667Z,96999.09
2023-05-05T14:50:49.348Z,97005.09
2023-05-05T14:53:15.844Z,97002.09
2023-05-05T14:55:42.310Z,96995.31
2023-05-05T14:58:09.425Z,97004.78
2023-05-05T15:00:35.999Z,97001.50
2023-05-05T15:03:02.586Z,96997.34
2023-05-05T15:05:29.223Z,96994.56
2023-05-05T15:07:55.786Z,97006.16
2023-05-05T15:10:22.289Z,97005.59
2023-05-05T15:12:48.820Z,97003.09
2023-05-05T15:15:15.340Z,97010.16
2023-05-05T15:17:41.874Z,97005.16
2023-05-05T15:20:08.458Z,97012.03
2023-05-05T15:22:34.974Z,97004.16
2023-05-05T15:25:01.564Z,97007.94
2023-05-05T15:27:28.163Z,97014.09
2023-05-05T15:29:54.615Z,97012.50
2023-05-05T15:32:21.062Z,97014.06
2023-05-05T15:34:49.571Z,97006.06
2023-05-05T15:37:16.810Z,97015.41
2023-05-05T15:39:43.277Z,97015.47
2023-05-05T15:42:09.719Z,97008.66
2023-05-05T15:44:36.145Z,97003.47
2023-05-05T15:47:02.705Z,97013.59
2023-05-05T15:49:29.256Z,97012.03
2023-05-05T15:51:55.917Z,97024.00
2023-05-05T15:54:22.452Z,97027.66
2023-05-05T15:56:48.961Z,97036.00
2023-05-05T15:59:15.447Z,97025.75
2023-05-05T16:01:41.907Z,97036.44
2023-05-05T16:04:08.455Z,97033.09
2023-05-05T16:06:34.983Z,97035.59
2023-05-05T16:09:01.418Z,97041.25
2023-05-05T16:11:27.899Z,97034.16
2023-05-05T16:13:54.417Z,97040.91
2023-05-05T16:16:20.926Z,97037.88
2023-05-05T16:18:47.512Z,97037.22
2023-05-05T16:21:13.977Z,97038.63
2023-05-05T16:23:40.488Z,97050.72
2023-05-05T16:26:06.953Z,97042.91
2023-05-05T16:28:33.476Z,97043.09
2023-05-05T16:30:59.967Z,97041.41
2023-05-05T16:33:26.470Z,97042.16
2023-05-05T16:35:53.023Z,97048.50
2023-05-05T16:38:19.602Z,97039.72
2023-05-05T16:40:46.146Z,97044.00
2023-05-05T16:43:12.664Z,97035.28
2023-05-05T16:45:39.209Z,97042.22
2023-05-05T16:48:07.499Z,97038.69
2023-05-05T16:50:35.550Z,97044.84
2023-05-05T16:53:02.037Z,97042.72
2023-05-05T16:55:28.553Z,97048.25
2023-05-05T16:57:55.015Z,97049.13
2023-05-05T17:00:21.452Z,97043.69
2023-05-05T17:02:47.958Z,97041.56
2023-05-05T17:05:14.547Z,97044.72
2023-05-05T17:07:41.032Z,97038.06
2023-05-05T17:10:07.531Z,97041.78
2023-05-05T17:12:33.999Z,97043.31
2023-05-05T17:15:00.469Z,97032.28
2023-05-05T17:17:26.972Z,97042.00
2023-05-05T17:19:53.489Z,97038.94
2023-05-05T17:22:19.945Z,97038.63
2023-05-05T17:24:46.393Z,97037.66
2023-05-05T17:27:12.889Z,97049.09
2023-05-05T17:29:39.406Z,97050.72
2023-05-05T17:32:06.046Z,97047.88
2023-05-05T17:34:32.668Z,97046.25
2023-05-05T17:36:59.132Z,97054.09
2023-05-05T17:39:25.577Z,97051.69
2023-05-05T17:41:51.984Z,97052.22
2023-05-05T17:44:18.387Z,97052.88
2023-05-05T17:46:44.936Z,97056.16
2023-05-05T17:49:11.542Z,97067.59
2023-05-05T17:51:38.047Z,97062.06
2023-05-05T17:54:04.511Z,97064.00
2023-05-05T17:56:30.949Z,97061.94
2023-05-05T17:58:57.419Z,97061.94
2023-05-05T18:01:24.022Z,97068.66
2023-05-05T18:03:50.599Z,97077.28
2023-05-05T18:06:17.185Z,97064.19
2023-05-05T18:08:43.756Z,97078.88
2023-05-05T18:11:10.188Z,97079.00
2023-05-05T18:13:36.649Z,97086.81
2023-05-05T18:16:03.158Z,97042.06
2023-05-05T18:18:29.783Z,97054.91
2023-05-05T18:20:56.248Z,97066.50
2023-05-05T18:23:22.707Z,97057.22
2023-05-05T18:25:49.273Z,97056.22
2023-05-05T18:28:15.805Z,97085.84
2023-05-05T18:30:42.329Z,97058.69
2023-05-05T18:33:08.842Z,97102.25
2023-05-05T18:35:35.380Z,97097.13
2023-05-05T18:38:01.975Z,97097.72
2023-05-05T18:40:28.454Z,97096.28
2023-05-05T18:42:54.975Z,97113.31
2023-05-05T18:45:21.506Z,97111.03
2023-05-05T18:47:48.117Z,97117.13
2023-05-05T18:50:14.660Z,97114.06
2023-05-05T18:52:41.192Z,97105.56
2023-05-05T18:55:07.913Z,97113.41
2023-05-05T18:57:34.603Z,97115.69
2023-05-05T19:00:01.099Z,97114.06
2023-05-05T19:02:27.692Z,97113.75
2023-05-05T19:04:54.245Z,97115.59
2023-05-05T19:07:33.776Z,97110.69
2023-05-05T19:10:01.387Z,97110.69
2023-05-05T19:12:27.927Z,97115.81
2023-05-05T19:14:54.417Z,97119.69
2023-05-05T19:17:20.985Z,97120.09
2023-05-05T19:19:47.498Z,97129.81
2023-05-05T19:22:14.081Z,97132.28
2023-05-05T19:24:40.616Z,97134.59
2023-05-05T19:27:07.059Z,97132.72
